sensor_id;sensor_type;location;lat;lon;timestamp;P1;durP1;ratioP1;P2;durP2;ratioP2
16403;SDS011;8311;50.158;8.642;2023-04-23T00:02:51;3.30;;;2.15;;
16403;SDS011;8311;50.158;8.642;2023-04-23T00:05:45;2.92;;;1.48;;
16403;SDS011;8311;50.158;8.642;2023-04-23T00:08:40;3.65;;;2.30;;
16403;SDS011;8311;50.158;8.642;2023-04-23T00:11:35;4.28;;;2.28;;
16403;SDS011;8311;50.158;8.642;2023-04-23T00:14:29;4.75;;;1.80;;
16403;SDS011;8311;50.158;8.642;2023-04-23T00:17:24;3.80;;;2.08;;
16403;SDS011;8311;50.158;8.642;2023-04-23T00:20:17;5.22;;;2.20;;
16403;SDS011;8311;50.158;8.642;2023-04-23T00:23:10;5.15;;;2.22;;
16403;SDS011;8311;50.158;8.642;2023-04-23T00:26:03;3.17;;;2.00;;
16403;SDS011;8311;50.158;8.642;2023-04-23T00:28:57;4.18;;;2.25;;
16403;SDS011;8311;50.158;8.642;2023-04-23T00:31:50;2.65;;;1.52;;
16403;SDS011;8311;50.158;8.642;2023-04-23T00:34:45;3.42;;;1.92;;
16403;SDS011;8311;50.158;8.642;2023-04-23T00:37:38;3.40;;;1.98;;
16403;SDS011;8311;50.158;8.642;2023-04-23T00:40:31;3.75;;;2.08;;
16403;SDS011;8311;50.158;8.642;2023-04-23T00:43:24;5.10;;;2.00;;
16403;SDS011;8311;50.158;8.642;2023-04-23T00:46:18;4.78;;;2.00;;
16403;SDS011;8311;50.158;8.642;2023-04-23T00:49:12;4.97;;;2.42;;
16403;SDS011;8311;50.158;8.642;2023-04-23T00:52:08;3.50;;;2.17;;
16403;SDS011;8311;50.158;8.642;2023-04-23T00:55:01;3.63;;;1.88;;
16403;SDS011;8311;50.158;8.642;2023-04-23T00:57:53;3.80;;;2.15;;
16403;SDS011;8311;50.158;8.642;2023-04-23T01:00:48;4.07;;;2.20;;
16403;SDS011;8311;50.158;8.642;2023-04-23T01:03:42;4.25;;;2.08;;
16403;SDS011;8311;50.158;8.642;2023-04-23T01:06:35;5.22;;;2.70;;
16403;SDS011;8311;50.158;8.642;2023-04-23T01:09:30;4.40;;;2.30;;
16403;SDS011;8311;50.158;8.642;2023-04-23T01:12:23;3.53;;;2.00;;
16403;SDS011;8311;50.158;8.642;2023-04-23T01:15:17;4.45;;;2.30;;
16403;SDS011;8311;50.158;8.642;2023-04-23T01:18:10;3.42;;;1.92;;
16403;SDS011;8311;50.158;8.642;2023-04-23T01:21:03;3.92;;;2.45;;
16403;SDS011;8311;50.158;8.642;2023-04-23T01:23:59;4.47;;;1.98;;
16403;SDS011;8311;50.158;8.642;2023-04-23T01:26:51;4.63;;;2.67;;
16403;SDS011;8311;50.158;8.642;2023-04-23T01:29:45;3.90;;;2.45;;
16403;SDS011;8311;50.158;8.642;2023-04-23T01:32:38;3.53;;;2.25;;
16403;SDS011;8311;50.158;8.642;2023-04-23T01:35:31;3.83;;;2.35;;
16403;SDS011;8311;50.158;8.642;2023-04-23T01:38:27;3.40;;;2.05;;
16403;SDS011;8311;50.158;8.642;2023-04-23T01:41:24;4.30;;;2.25;;
16403;SDS011;8311;50.158;8.642;2023-04-23T01:44:16;4.35;;;2.47;;
16403;SDS011;8311;50.158;8.642;2023-04-23T01:47:10;4.82;;;2.90;;
16403;SDS011;8311;50.158;8.642;2023-04-23T01:50:04;3.10;;;2.13;;
16403;SDS011;8311;50.158;8.642;2023-04-23T01:52:58;6.00;;;2.75;;
16403;SDS011;8311;50.158;8.642;2023-04-23T01:55:51;5.40;;;2.58;;
16403;SDS011;8311;50.158;8.642;2023-04-23T01:58:48;3.90;;;2.50;;
16403;SDS011;8311;50.158;8.642;2023-04-23T02:01:42;4.30;;;2.75;;
16403;SDS011;8311;50.158;8.642;2023-04-23T02:04:36;6.15;;;2.97;;
16403;SDS011;8311;50.158;8.642;2023-04-23T02:07:33;5.20;;;3.15;;
16403;SDS011;8311;50.158;8.642;2023-04-23T02:10:27;5.00;;;2.75;;
16403;SDS011;8311;50.158;8.642;2023-04-23T02:13:20;5.25;;;3.00;;
16403;SDS011;8311;50.158;8.642;2023-04-23T02:16:15;5.90;;;3.03;;
16403;SDS011;8311;50.158;8.642;2023-04-23T02:19:09;4.60;;;2.55;;
16403;SDS011;8311;50.158;8.642;2023-04-23T02:22:06;4.22;;;2.47;;
16403;SDS011;8311;50.158;8.642;2023-04-23T02:24:59;5.10;;;3.10;;
16403;SDS011;8311;50.158;8.642;2023-04-23T02:27:52;5.95;;;2.95;;
16403;SDS011;8311;50.158;8.642;2023-04-23T02:30:47;4.95;;;2.92;;
16403;SDS011;8311;50.158;8.642;2023-04-23T02:33:42;4.90;;;3.13;;
16403;SDS011;8311;50.158;8.642;2023-04-23T02:36:35;3.90;;;2.55;;
16403;SDS011;8311;50.158;8.642;2023-04-23T02:39:28;4.32;;;2.67;;
16403;SDS011;8311;50.158;8.642;2023-04-23T02:42:22;4.68;;;3.15;;
16403;SDS011;8311;50.158;8.642;2023-04-23T02:45:14;5.05;;;3.00;;
16403;SDS011;8311;50.158;8.642;2023-04-23T02:48:07;5.18;;;3.38;;
16403;SDS011;8311;50.158;8.642;2023-04-23T02:51:02;4.20;;;3.13;;
16403;SDS011;8311;50.158;8.642;2023-04-23T02:53:56;4.80;;;2.95;;
16403;SDS011;8311;50.158;8.642;2023-04-23T02:56:48;4.63;;;3.15;;
16403;SDS011;8311;50.158;8.642;2023-04-23T02:59:42;5.03;;;3.13;;
16403;SDS011;8311;50.158;8.642;2023-04-23T03:02:35;5.93;;;3.65;;
16403;SDS011;8311;50.158;8.642;2023-04-23T03:05:27;6.75;;;3.22;;
16403;SDS011;8311;50.158;8.642;2023-04-23T03:08:22;4.80;;;3.50;;
16403;SDS011;8311;50.158;8.642;2023-04-23T03:11:15;4.50;;;3.08;;
16403;SDS011;8311;50.158;8.642;2023-04-23T03:14:08;5.00;;;3.20;;
16403;SDS011;8311;50.158;8.642;2023-04-23T03:17:01;6.93;;;3.45;;
16403;SDS011;8311;50.158;8.642;2023-04-23T03:19:53;4.43;;;2.85;;
16403;SDS011;8311;50.158;8.642;2023-04-23T03:22:46;4.78;;;2.92;;
16403;SDS011;8311;50.158;8.642;2023-04-23T03:25:41;4.78;;;3.22;;
16403;SDS011;8311;50.158;8.642;2023-04-23T03:28:34;5.40;;;2.80;;
16403;SDS011;8311;50.158;8.642;2023-04-23T03:31:26;6.38;;;3.60;;
16403;SDS011;8311;50.158;8.642;2023-04-23T03:34:19;4.22;;;2.80;;
16403;SDS011;8311;50.158;8.642;2023-04-23T03:37:12;5.22;;;3.15;;
16403;SDS011;8311;50.158;8.642;2023-04-23T03:40:06;4.80;;;3.10;;
16403;SDS011;8311;50.158;8.642;2023-04-23T03:43:02;5.55;;;3.13;;
16403;SDS011;8311;50.158;8.642;2023-04-23T03:45:56;6.68;;;3.20;;
16403;SDS011;8311;50.158;8.642;2023-04-23T03:48:50;5.18;;;2.75;;
16403;SDS011;8311;50.158;8.642;2023-04-23T03:51:43;4.78;;;3.00;;
16403;SDS011;8311;50.158;8.642;2023-04-23T03:54:36;5.05;;;3.53;;
16403;SDS011;8311;50.158;8.642;2023-04-23T03:57:30;4.55;;;2.97;;
16403;SDS011;8311;50.158;8.642;2023-04-23T04:00:24;7.25;;;3.05;;
16403;SDS011;8311;50.158;8.642;2023-04-23T04:03:17;4.90;;;3.00;;
16403;SDS011;8311;50.158;8.642;2023-04-23T04:06:10;4.45;;;2.95;;
16403;SDS011;8311;50.158;8.642;2023-04-23T04:09:04;5.15;;;2.97;;
16403;SDS011;8311;50.158;8.642;2023-04-23T04:11:57;5.18;;;3.00;;
16403;SDS011;8311;50.158;8.642;2023-04-23T04:14:51;5.78;;;3.15;;
16403;SDS011;8311;50.158;8.642;2023-04-23T04:17:45;4.47;;;3.03;;
16403;SDS011;8311;50.158;8.642;2023-04-23T04:20:39;5.88;;;3.08;;
16403;SDS011;8311;50.158;8.642;2023-04-23T04:23:35;5.10;;;3.22;;
16403;SDS011;8311;50.158;8.642;2023-04-23T04:26:28;4.97;;;2.83;;
16403;SDS011;8311;50.158;8.642;2023-04-23T04:29:22;6.22;;;2.90;;
16403;SDS011;8311;50.158;8.642;2023-04-23T04:32:16;4.97;;;3.03;;
16403;SDS011;8311;50.158;8.642;2023-04-23T04:35:14;4.78;;;2.67;;
16403;SDS011;8311;50.158;8.642;2023-04-23T04:38:06;4.38;;;2.90;;
16403;SDS011;8311;50.158;8.642;2023-04-23T04:41:00;11.45;;;3.60;;
16403;SDS011;8311;50.158;8.642;2023-04-23T04:43:53;5.93;;;2.97;;
16403;SDS011;8311;50.158;8.642;2023-04-23T04:46:46;3.67;;;1.85;;
16403;SDS011;8311;50.158;8.642;2023-04-23T04:49:39;5.80;;;2.60;;
16403;SDS011;8311;50.158;8.642;2023-04-23T04:52:33;4.50;;;2.47;;
16403;SDS011;8311;50.158;8.642;2023-04-23T04:55:27;6.18;;;2.60;;
16403;SDS011;8311;50.158;8.642;2023-04-23T04:58:20;5.85;;;2.58;;
16403;SDS011;8311;50.158;8.642;2023-04-23T05:01:14;3.85;;;2.28;;
16403;SDS011;8311;50.158;8.642;2023-04-23T05:04:09;4.72;;;1.98;;
16403;SDS011;8311;50.158;8.642;2023-04-23T05:07:01;3.92;;;2.30;;
16403;SDS011;8311;50.158;8.642;2023-04-23T05:09:56;4.88;;;2.42;;
16403;SDS011;8311;50.158;8.642;2023-04-23T05:12:49;3.05;;;2.30;;
16403;SDS011;8311;50.158;8.642;2023-04-23T05:15:43;4.45;;;2.50;;
16403;SDS011;8311;50.158;8.642;2023-04-23T05:18:38;4.43;;;2.50;;
16403;SDS011;8311;50.158;8.642;2023-04-23T05:21:31;5.07;;;2.45;;
16403;SDS011;8311;50.158;8.642;2023-04-23T05:24:24;3.42;;;2.28;;
16403;SDS011;8311;50.158;8.642;2023-04-23T05:27:18;3.80;;;2.15;;
16403;SDS011;8311;50.158;8.642;2023-04-23T05:30:11;3.70;;;2.22;;
16403;SDS011;8311;50.158;8.642;2023-04-23T05:33:05;3.30;;;2.15;;
16403;SDS011;8311;50.158;8.642;2023-04-23T05:35:58;3.05;;;2.10;;
16403;SDS011;8311;50.158;8.642;2023-04-23T05:38:51;3.25;;;1.95;;
16403;SDS011;8311;50.158;8.642;2023-04-23T05:41:44;4.30;;;2.33;;
16403;SDS011;8311;50.158;8.642;2023-04-23T05:44:38;4.28;;;2.50;;
16403;SDS011;8311;50.158;8.642;2023-04-23T05:47:33;3.35;;;1.80;;
16403;SDS011;8311;50.158;8.642;2023-04-23T05:50:27;3.83;;;2.13;;
16403;SDS011;8311;50.158;8.642;2023-04-23T05:53:21;2.67;;;1.98;;
16403;SDS011;8311;50.158;8.642;2023-04-23T05:56:14;2.90;;;2.03;;
16403;SDS011;8311;50.158;8.642;2023-04-23T05:59:07;3.65;;;2.33;;
16403;SDS011;8311;50.158;8.642;2023-04-23T06:02:02;4.05;;;2.00;;
16403;SDS011;8311;50.158;8.642;2023-04-23T06:04:55;2.67;;;1.80;;
16403;SDS011;8311;50.158;8.642;2023-04-23T06:07:49;3.50;;;1.90;;
16403;SDS011;8311;50.158;8.642;2023-04-23T06:10:41;3.00;;;2.00;;
16403;SDS011;8311;50.158;8.642;2023-04-23T06:13:35;2.97;;;2.10;;
16403;SDS011;8311;50.158;8.642;2023-04-23T06:16:34;2.85;;;2.03;;
16403;SDS011;8311;50.158;8.642;2023-04-23T06:19:28;2.42;;;1.83;;
16403;SDS011;8311;50.158;8.642;2023-04-23T06:22:22;3.65;;;2.10;;
16403;SDS011;8311;50.158;8.642;2023-04-23T06:25:15;2.92;;;1.75;;
16403;SDS011;8311;50.158;8.642;2023-04-23T06:28:07;2.72;;;1.80;;
16403;SDS011;8311;50.158;8.642;2023-04-23T06:31:01;2.88;;;1.80;;
16403;SDS011;8311;50.158;8.642;2023-04-23T06:33:56;3.58;;;2.20;;
16403;SDS011;8311;50.158;8.642;2023-04-23T06:36:50;2.88;;;2.03;;
16403;SDS011;8311;50.158;8.642;2023-04-23T06:39:43;2.85;;;2.00;;
16403;SDS011;8311;50.158;8.642;2023-04-23T06:42:37;2.88;;;2.10;;
16403;SDS011;8311;50.158;8.642;2023-04-23T06:45:30;1.70;;;1.40;;
16403;SDS011;8311;50.158;8.642;2023-04-23T06:48:24;2.60;;;1.85;;
16403;SDS011;8311;50.158;8.642;2023-04-23T06:51:17;2.53;;;1.90;;
16403;SDS011;8311;50.158;8.642;2023-04-23T06:54:11;3.55;;;1.77;;
16403;SDS011;8311;50.158;8.642;2023-04-23T06:57:04;2.55;;;1.70;;
16403;SDS011;8311;50.158;8.642;2023-04-23T06:59:58;2.10;;;1.70;;
16403;SDS011;8311;50.158;8.642;2023-04-23T07:02:52;3.15;;;1.88;;
16403;SDS011;8311;50.158;8.642;2023-04-23T07:05:45;3.03;;;1.92;;
16403;SDS011;8311;50.158;8.642;2023-04-23T07:08:38;3.15;;;2.00;;
16403;SDS011;8311;50.158;8.642;2023-04-23T07:11:33;3.95;;;2.10;;
16403;SDS011;8311;50.158;8.642;2023-04-23T07:14:27;3.63;;;2.15;;
16403;SDS011;8311;50.158;8.642;2023-04-23T07:17:20;3.88;;;2.22;;
16403;SDS011;8311;50.158;8.642;2023-04-23T07:20:13;3.60;;;2.30;;
16403;SDS011;8311;50.158;8.642;2023-04-23T07:23:06;5.05;;;2.17;;
16403;SDS011;8311;50.158;8.642;2023-04-23T07:25:58;4.15;;;2.67;;
16403;SDS011;8311;50.158;8.642;2023-04-23T07:28:53;3.80;;;2.00;;
16403;SDS011;8311;50.158;8.642;2023-04-23T07:31:47;3.20;;;2.00;;
16403;SDS011;8311;50.158;8.642;2023-04-23T07:34:40;3.85;;;2.05;;
16403;SDS011;8311;50.158;8.642;2023-04-23T07:37:34;5.25;;;2.20;;
16403;SDS011;8311;50.158;8.642;2023-04-23T07:40:27;4.78;;;2.38;;
16403;SDS011;8311;50.158;8.642;2023-04-23T07:43:19;3.50;;;2.30;;
16403;SDS011;8311;50.158;8.642;2023-04-23T07:46:14;3.28;;;2.10;;
16403;SDS011;8311;50.158;8.642;2023-04-23T07:49:08;3.38;;;2.20;;
16403;SDS011;8311;50.158;8.642;2023-04-23T07:52:01;2.70;;;1.88;;
16403;SDS011;8311;50.158;8.642;2023-04-23T07:54:54;3.70;;;2.38;;
16403;SDS011;8311;50.158;8.642;2023-04-23T07:57:48;3.40;;;2.10;;
16403;SDS011;8311;50.158;8.642;2023-04-23T08:00:41;5.93;;;2.47;;
16403;SDS011;8311;50.158;8.642;2023-04-23T08:03:35;4.03;;;2.20;;
16403;SDS011;8311;50.158;8.642;2023-04-23T08:06:29;3.47;;;2.17;;
16403;SDS011;8311;50.158;8.642;2023-04-23T08:09:24;4.80;;;2.50;;
16403;SDS011;8311;50.158;8.642;2023-04-23T08:12:17;3.67;;;2.10;;
16403;SDS011;8311;50.158;8.642;2023-04-23T08:15:10;2.85;;;1.90;;
16403;SDS011;8311;50.158;8.642;2023-04-23T08:18:04;3.13;;;2.10;;
16403;SDS011;8311;50.158;8.642;2023-04-23T08:20:59;5.70;;;2.50;;
16403;SDS011;8311;50.158;8.642;2023-04-23T08:23:53;4.18;;;2.13;;
16403;SDS011;8311;50.158;8.642;2023-04-23T08:26:46;5.18;;;2.67;;
16403;SDS011;8311;50.158;8.642;2023-04-23T08:29:39;4.53;;;2.55;;
16403;SDS011;8311;50.158;8.642;2023-04-23T08:32:33;3.90;;;2.25;;
16403;SDS011;8311;50.158;8.642;2023-04-23T08:35:26;4.57;;;2.60;;
16403;SDS011;8311;50.158;8.642;2023-04-23T08:38:20;4.50;;;2.20;;
16403;SDS011;8311;50.158;8.642;2023-04-23T08:41:14;4.25;;;2.50;;
16403;SDS011;8311;50.158;8.642;2023-04-23T08:44:12;4.18;;;2.50;;
16403;SDS011;8311;50.158;8.642;2023-04-23T08:47:10;4.13;;;2.35;;
16403;SDS011;8311;50.158;8.642;2023-04-23T08:50:06;4.75;;;2.80;;
16403;SDS011;8311;50.158;8.642;2023-04-23T08:53:01;6.65;;;2.78;;
16403;SDS011;8311;50.158;8.642;2023-04-23T08:55:59;5.15;;;3.15;;
16403;SDS011;8311;50.158;8.642;2023-04-23T08:58:53;3.63;;;2.67;;
16403;SDS011;8311;50.158;8.642;2023-04-23T09:01:48;3.97;;;2.83;;
16403;SDS011;8311;50.158;8.642;2023-04-23T09:04:42;3.50;;;2.70;;
16403;SDS011;8311;50.158;8.642;2023-04-23T09:07:40;5.18;;;2.85;;
16403;SDS011;8311;50.158;8.642;2023-04-23T09:10:34;3.92;;;2.72;;
16403;SDS011;8311;50.158;8.642;2023-04-23T09:13:32;5.43;;;2.83;;
16403;SDS011;8311;50.158;8.642;2023-04-23T09:16:26;5.63;;;3.13;;
16403;SDS011;8311;50.158;8.642;2023-04-23T09:19:19;3.70;;;2.53;;
16403;SDS011;8311;50.158;8.642;2023-04-23T09:22:13;4.80;;;2.42;;
16403;SDS011;8311;50.158;8.642;2023-04-23T09:25:07;3.30;;;2.70;;
16403;SDS011;8311;50.158;8.642;2023-04-23T09:28:02;3.42;;;2.42;;
16403;SDS011;8311;50.158;8.642;2023-04-23T09:31:00;3.95;;;2.55;;
16403;SDS011;8311;50.158;8.642;2023-04-23T09:33:56;3.80;;;2.65;;
16403;SDS011;8311;50.158;8.642;2023-04-23T09:36:51;4.57;;;2.83;;
16403;SDS011;8311;50.158;8.642;2023-04-23T09:39:45;3.20;;;2.20;;
16403;SDS011;8311;50.158;8.642;2023-04-23T09:42:38;3.05;;;2.17;;
16403;SDS011;8311;50.158;8.642;2023-04-23T09:45:31;4.45;;;2.42;;
16403;SDS011;8311;50.158;8.642;2023-04-23T09:48:27;3.40;;;2.55;;
16403;SDS011;8311;50.158;8.642;2023-04-23T09:51:32;3.60;;;2.30;;
16403;SDS011;8311;50.158;8.642;2023-04-23T09:54:27;3.10;;;2.10;;
16403;SDS011;8311;50.158;8.642;2023-04-23T09:57:22;3.75;;;2.30;;
16403;SDS011;8311;50.158;8.642;2023-04-23T10:00:17;4.22;;;2.25;;
16403;SDS011;8311;50.158;8.642;2023-04-23T10:03:13;3.97;;;2.00;;
16403;SDS011;8311;50.158;8.642;2023-04-23T10:06:08;3.50;;;2.25;;
16403;SDS011;8311;50.158;8.642;2023-04-23T10:09:25;3.45;;;2.10;;
16403;SDS011;8311;50.158;8.642;2023-04-23T10:12:19;4.15;;;2.08;;
16403;SDS011;8311;50.158;8.642;2023-04-23T10:15:16;4.93;;;2.22;;
16403;SDS011;8311;50.158;8.642;2023-04-23T10:18:10;2.75;;;2.15;;
16403;SDS011;8311;50.158;8.642;2023-04-23T10:21:05;3.72;;;2.08;;
16403;SDS011;8311;50.158;8.642;2023-04-23T10:23:59;4.18;;;2.00;;
16403;SDS011;8311;50.158;8.642;2023-04-23T10:26:55;2.78;;;2.08;;
16403;SDS011;8311;50.158;8.642;2023-04-23T10:29:52;3.15;;;2.05;;
16403;SDS011;8311;50.158;8.642;2023-04-23T10:32:46;3.65;;;2.20;;
16403;SDS011;8311;50.158;8.642;2023-04-23T10:35:40;2.90;;;1.95;;
16403;SDS011;8311;50.158;8.642;2023-04-23T10:38:33;3.92;;;2.13;;
16403;SDS011;8311;50.158;8.642;2023-04-23T10:41:38;3.80;;;2.22;;
16403;SDS011;8311;50.158;8.642;2023-04-23T10:44:35;3.83;;;2.13;;
16403;SDS011;8311;50.158;8.642;2023-04-23T10:47:32;4.10;;;1.88;;
16403;SDS011;8311;50.158;8.642;2023-04-23T10:50:27;3.03;;;2.03;;
16403;SDS011;8311;50.158;8.642;2023-04-23T10:53:21;3.03;;;1.88;;
16403;SDS011;8311;50.158;8.642;2023-04-23T10:56:14;2.78;;;1.80;;
16403;SDS011;8311;50.158;8.642;2023-04-23T10:59:10;2.55;;;1.60;;
16403;SDS011;8311;50.158;8.642;2023-04-23T11:02:11;2.65;;;1.70;;
16403;SDS011;8311;50.158;8.642;2023-04-23T11:05:07;4.50;;;1.95;;
16403;SDS011;8311;50.158;8.642;2023-04-23T11:08:01;2.95;;;1.65;;
16403;SDS011;8311;50.158;8.642;2023-04-23T11:10:59;3.28;;;1.65;;
16403;SDS011;8311;50.158;8.642;2023-04-23T11:13:54;3.97;;;2.03;;
16403;SDS011;8311;50.158;8.642;2023-04-23T11:16:51;3.90;;;2.00;;
16403;SDS011;8311;50.158;8.642;2023-04-23T11:23:05;3.75;;;2.20;;
16403;SDS011;8311;50.158;8.642;2023-04-23T11:25:58;4.78;;;1.58;;
16403;SDS011;8311;50.158;8.642;2023-04-23T11:28:52;4.05;;;1.90;;
16403;SDS011;8311;50.158;8.642;2023-04-23T11:31:46;3.40;;;1.88;;
16403;SDS011;8311;50.158;8.642;2023-04-23T11:34:54;3.22;;;1.80;;
16403;SDS011;8311;50.158;8.642;2023-04-23T11:37:51;5.18;;;2.05;;
16403;SDS011;8311;50.158;8.642;2023-04-23T11:40:44;5.65;;;2.17;;
16403;SDS011;8311;50.158;8.642;2023-04-23T11:43:40;5.18;;;1.83;;
16403;SDS011;8311;50.158;8.642;2023-04-23T11:46:34;4.95;;;2.08;;
16403;SDS011;8311;50.158;8.642;2023-04-23T11:49:28;4.65;;;2.10;;
16403;SDS011;8311;50.158;8.642;2023-04-23T11:52:23;5.25;;;1.83;;
16403;SDS011;8311;50.158;8.642;2023-04-23T11:55:18;2.15;;;1.65;;
16403;SDS011;8311;50.158;8.642;2023-04-23T11:58:12;3.90;;;1.98;;
16403;SDS011;8311;50.158;8.642;2023-04-23T12:01:09;3.88;;;1.85;;
16403;SDS011;8311;50.158;8.642;2023-04-23T12:04:07;3.63;;;1.60;;
16403;SDS011;8311;50.158;8.642;2023-04-23T12:07:02;4.45;;;1.77;;
16403;SDS011;8311;50.158;8.642;2023-04-23T12:10:16;4.78;;;1.70;;
16403;SDS011;8311;50.158;8.642;2023-04-23T12:13:15;5.28;;;2.72;;
16403;SDS011;8311;50.158;8.642;2023-04-23T12:16:08;4.50;;;1.90;;
16403;SDS011;8311;50.158;8.642;2023-04-23T12:19:01;4.40;;;1.63;;
16403;SDS011;8311;50.158;8.642;2023-04-23T12:21:55;3.25;;;2.00;;
16403;SDS011;8311;50.158;8.642;2023-04-23T12:24:49;3.20;;;2.10;;
16403;SDS011;8311;50.158;8.642;2023-04-23T12:27:44;3.45;;;1.60;;
16403;SDS011;8311;50.158;8.642;2023-04-23T12:30:43;5.03;;;2.00;;
16403;SDS011;8311;50.158;8.642;2023-04-23T12:33:36;3.97;;;1.60;;
16403;SDS011;8311;50.158;8.642;2023-04-23T12:36:30;4.63;;;1.50;;
16403;SDS011;8311;50.158;8.642;2023-04-23T12:39:25;2.83;;;1.63;;
16403;SDS011;8311;50.158;8.642;2023-04-23T12:42:21;4.78;;;1.65;;
16403;SDS011;8311;50.158;8.642;2023-04-23T12:45:15;3.50;;;1.60;;
16403;SDS011;8311;50.158;8.642;2023-04-23T12:48:08;4.45;;;1.80;;
16403;SDS011;8311;50.158;8.642;2023-04-23T12:51:02;2.97;;;1.63;;
16403;SDS011;8311;50.158;8.642;2023-04-23T12:53:57;4.53;;;1.55;;
16403;SDS011;8311;50.158;8.642;2023-04-23T12:56:50;2.83;;;1.55;;
16403;SDS011;8311;50.158;8.642;2023-04-23T12:59:43;3.20;;;1.63;;
16403;SDS011;8311;50.158;8.642;2023-04-23T13:02:37;4.03;;;1.92;;
16403;SDS011;8311;50.158;8.642;2023-04-23T13:05:31;4.93;;;2.03;;
16403;SDS011;8311;50.158;8.642;2023-04-23T13:08:24;4.47;;;1.83;;
16403;SDS011;8311;50.158;8.642;2023-04-23T13:11:17;5.90;;;1.83;;
16403;SDS011;8311;50.158;8.642;2023-04-23T13:14:11;6.28;;;1.60;;
16403;SDS011;8311;50.158;8.642;2023-04-23T13:17:05;3.97;;;1.80;;
16403;SDS011;8311;50.158;8.642;2023-04-23T13:20:00;3.95;;;1.77;;
16403;SDS011;8311;50.158;8.642;2023-04-23T13:22:53;4.10;;;2.20;;
16403;SDS011;8311;50.158;8.642;2023-04-23T13:25:46;3.88;;;1.80;;
16403;SDS011;8311;50.158;8.642;2023-04-23T13:28:39;3.53;;;1.73;;
16403;SDS011;8311;50.158;8.642;2023-04-23T13:31:32;3.33;;;1.70;;
16403;SDS011;8311;50.158;8.642;2023-04-23T13:34:25;2.72;;;1.50;;
16403;SDS011;8311;50.158;8.642;2023-04-23T13:37:19;5.97;;;1.77;;
16403;SDS011;8311;50.158;8.642;2023-04-23T13:40:14;2.45;;;1.55;;
16403;SDS011;8311;50.158;8.642;2023-04-23T13:43:07;2.97;;;1.67;;
16403;SDS011;8311;50.158;8.642;2023-04-23T13:46:01;3.45;;;1.55;;
16403;SDS011;8311;50.158;8.642;2023-04-23T13:48:55;3.10;;;2.03;;
16403;SDS011;8311;50.158;8.642;2023-04-23T13:51:48;2.97;;;1.50;;
16403;SDS011;8311;50.158;8.642;2023-04-23T13:54:44;4.13;;;1.58;;
16403;SDS011;8311;50.158;8.642;2023-04-23T13:57:39;3.55;;;2.00;;
16403;SDS011;8311;50.158;8.642;2023-04-23T14:00:32;4.63;;;2.00;;
16403;SDS011;8311;50.158;8.642;2023-04-23T14:03:25;4.80;;;1.63;;
16403;SDS011;8311;50.158;8.642;2023-04-23T14:06:18;4.45;;;1.85;;
16403;SDS011;8311;50.158;8.642;2023-04-23T14:09:11;4.45;;;2.10;;
16403;SDS011;8311;50.158;8.642;2023-04-23T14:12:06;2.90;;;1.73;;
16403;SDS011;8311;50.158;8.642;2023-04-23T14:14:59;3.60;;;2.08;;
16403;SDS011;8311;50.158;8.642;2023-04-23T14:17:52;2.83;;;1.60;;
16403;SDS011;8311;50.158;8.642;2023-04-23T14:20:46;1.88;;;1.30;;
16403;SDS011;8311;50.158;8.642;2023-04-23T14:23:43;2.95;;;1.60;;
16403;SDS011;8311;50.158;8.642;2023-04-23T14:26:40;5.05;;;1.58;;
16403;SDS011;8311;50.158;8.642;2023-04-23T14:29:44;3.80;;;1.63;;
16403;SDS011;8311;50.158;8.642;2023-04-23T14:32:38;3.92;;;1.85;;
16403;SDS011;8311;50.158;8.642;2023-04-23T14:35:31;3.75;;;1.33;;
16403;SDS011;8311;50.158;8.642;2023-04-23T14:38:33;2.88;;;1.33;;
16403;SDS011;8311;50.158;8.642;2023-04-23T14:41:27;2.92;;;1.30;;
16403;SDS011;8311;50.158;8.642;2023-04-23T14:44:20;4.18;;;2.00;;
16403;SDS011;8311;50.158;8.642;2023-04-23T14:47:18;2.28;;;1.52;;
16403;SDS011;8311;50.158;8.642;2023-04-23T14:50:13;3.28;;;1.40;;
16403;SDS011;8311;50.158;8.642;2023-04-23T14:53:07;2.95;;;1.40;;
16403;SDS011;8311;50.158;8.642;2023-04-23T14:56:01;4.57;;;1.63;;
16403;SDS011;8311;50.158;8.642;2023-04-23T14:58:54;3.05;;;1.52;;
16403;SDS011;8311;50.158;8.642;2023-04-23T15:01:47;2.20;;;1.45;;
16403;SDS011;8311;50.158;8.642;2023-04-23T15:04:42;1.55;;;1.10;;
16403;SDS011;8311;50.158;8.642;2023-04-23T15:07:35;1.27;;;1.10;;
16403;SDS011;8311;50.158;8.642;2023-04-23T15:10:28;3.25;;;1.35;;
16403;SDS011;8311;50.158;8.642;2023-04-23T15:13:38;3.78;;;1.75;;
16403;SDS011;8311;50.158;8.642;2023-04-23T15:16:36;2.42;;;1.30;;
16403;SDS011;8311;50.158;8.642;2023-04-23T15:19:42;2.67;;;1.45;;
16403;SDS011;8311;50.158;8.642;2023-04-23T15:22:35;2.05;;;1.23;;
16403;SDS011;8311;50.158;8.642;2023-04-23T15:25:29;1.48;;;0.82;;
16403;SDS011;8311;50.158;8.642;2023-04-23T15:28:24;2.03;;;1.23;;
16403;SDS011;8311;50.158;8.642;2023-04-23T15:31:17;1.65;;;1.35;;
16403;SDS011;8311;50.158;8.642;2023-04-23T15:34:10;2.35;;;1.13;;
16403;SDS011;8311;50.158;8.642;2023-04-23T15:37:05;2.53;;;1.20;;
16403;SDS011;8311;50.158;8.642;2023-04-23T15:39:58;2.50;;;1.20;;
16403;SDS011;8311;50.158;8.642;2023-04-23T15:42:51;2.45;;;1.15;;
16403;SDS011;8311;50.158;8.642;2023-04-23T15:45:44;1.40;;;1.15;;
16403;SDS011;8311;50.158;8.642;2023-04-23T15:48:38;1.25;;;1.08;;
16403;SDS011;8311;50.158;8.642;2023-04-23T15:51:31;2.08;;;1.30;;
16403;SDS011;8311;50.158;8.642;2023-04-23T15:54:26;1.92;;;1.13;;
16403;SDS011;8311;50.158;8.642;2023-04-23T15:57:19;1.65;;;1.20;;
16403;SDS011;8311;50.158;8.642;2023-04-23T16:00:12;2.67;;;1.38;;
16403;SDS011;8311;50.158;8.642;2023-04-23T16:03:07;3.05;;;1.35;;
16403;SDS011;8311;50.158;8.642;2023-04-23T16:06:01;2.35;;;1.17;;
16403;SDS011;8311;50.158;8.642;2023-04-23T16:08:55;1.90;;;1.20;;
16403;SDS011;8311;50.158;8.642;2023-04-23T16:11:51;2.05;;;1.20;;
16403;SDS011;8311;50.158;8.642;2023-04-23T16:14:44;1.67;;;1.10;;
16403;SDS011;8311;50.158;8.642;2023-04-23T16:17:38;1.35;;;0.90;;
16403;SDS011;8311;50.158;8.642;2023-04-23T16:20:32;1.83;;;1.23;;
16403;SDS011;8311;50.158;8.642;2023-04-23T16:23:26;2.00;;;1.33;;
16403;SDS011;8311;50.158;8.642;2023-04-23T16:26:19;1.95;;;1.38;;
16403;SDS011;8311;50.158;8.642;2023-04-23T16:29:14;2.13;;;1.20;;
16403;SDS011;8311;50.158;8.642;2023-04-23T16:32:12;1.95;;;1.30;;
16403;SDS011;8311;50.158;8.642;2023-04-23T16:35:06;2.03;;;1.20;;
16403;SDS011;8311;50.158;8.642;2023-04-23T16:37:59;1.77;;;1.20;;
16403;SDS011;8311;50.158;8.642;2023-04-23T16:40:52;4.78;;;1.35;;
16403;SDS011;8311;50.158;8.642;2023-04-23T16:43:45;1.75;;;1.08;;
16403;SDS011;8311;50.158;8.642;2023-04-23T16:46:40;2.33;;;1.08;;
16403;SDS011;8311;50.158;8.642;2023-04-23T16:49:34;2.47;;;1.25;;
16403;SDS011;8311;50.158;8.642;2023-04-23T16:52:27;4.03;;;1.30;;
16403;SDS011;8311;50.158;8.642;2023-04-23T16:55:20;2.60;;;1.55;;
16403;SDS011;8311;50.158;8.642;2023-04-23T16:58:13;2.58;;;1.13;;
16403;SDS011;8311;50.158;8.642;2023-04-23T17:01:07;1.30;;;1.20;;
16403;SDS011;8311;50.158;8.642;2023-04-23T17:04:02;1.90;;;1.25;;
16403;SDS011;8311;50.158;8.642;2023-04-23T17:06:56;2.05;;;1.23;;
16403;SDS011;8311;50.158;8.642;2023-04-23T17:09:49;0.85;;;0.80;;
16403;SDS011;8311;50.158;8.642;2023-04-23T17:12:43;1.92;;;1.13;;
16403;SDS011;8311;50.158;8.642;2023-04-23T17:15:36;1.98;;;1.20;;
16403;SDS011;8311;50.158;8.642;2023-04-23T17:18:29;2.47;;;1.10;;
16403;SDS011;8311;50.158;8.642;2023-04-23T17:21:24;1.65;;;1.05;;
16403;SDS011;8311;50.158;8.642;2023-04-23T17:24:17;1.65;;;1.02;;
16403;SDS011;8311;50.158;8.642;2023-04-23T17:27:10;3.65;;;1.13;;
16403;SDS011;8311;50.158;8.642;2023-04-23T17:30:04;1.70;;;1.10;;
16403;SDS011;8311;50.158;8.642;2023-04-23T17:32:58;2.17;;;1.02;;
16403;SDS011;8311;50.158;8.642;2023-04-23T17:35:52;1.80;;;0.93;;
16403;SDS011;8311;50.158;8.642;2023-04-23T17:38:48;2.35;;;1.23;;
16403;SDS011;8311;50.158;8.642;2023-04-23T17:41:41;3.70;;;1.40;;
16403;SDS011;8311;50.158;8.642;2023-04-23T17:44:34;1.70;;;1.20;;
16403;SDS011;8311;50.158;8.642;2023-04-23T17:47:27;2.60;;;1.30;;
16403;SDS011;8311;50.158;8.642;2023-04-23T17:50:22;2.50;;;1.30;;